Time;durP1;ratioP1;P1;durP2;ratioP2;P2;SDS_P1;SDS_P2;PMS_P1;PMS_P2;Temp;Humidity;BMP_temperature;BMP_pressure;BME280_temperature;BME280_humidity;BME280_pressure;Samples;Min_cycle;Max_cycle;Signal;HPM_P1;HPM_P2
2023/07/25 00:07:40;;;;;;;5.75;3.15;;;13.30;1.00;;;;;;20805742;28;20044;-41
2023/07/25 00:17:41;;;;;;;7.13;3.28;;;13.20;1.00;;;;;;20799213;28;20040;-41
2023/07/25 00:27:42;;;;;;;3.95;2.97;;;13.20;1.00;;;;;;20804367;28;20041;-41
2023/07/25 00:37:43;;;;;;;10.15;3.35;;;13.10;1.00;;;;;;20825736;28;20846;-41
2023/07/25 00:47:44;;;;;;;6.13;3.20;;;13.00;1.00;;;;;;20856301;28;20083;-41
2023/07/25 00:57:45;;;;;;;8.73;3.53;;;12.90;4.60;;;;;;20779608;28;20038;-41
2023/07/25 01:07:47;;;;;;;5.07;3.13;;;12.80;15.60;;;;;;20856672;28;20037;-41
2023/07/25 01:17:48;;;;;;;6.95;3.10;;;12.80;17.50;;;;;;20859965;28;20436;-41
2023/07/25 01:27:49;;;;;;;10.32;3.75;;;12.80;22.50;;;;;;20833025;28;20037;-41
2023/07/25 01:37:50;;;;;;;7.28;3.00;;;12.90;26.00;;;;;;20855904;28;20496;-41
2023/07/25 01:47:51;;;;;;;7.07;2.97;;;12.80;24.00;;;;;;20865069;28;20420;-41
2023/07/25 01:57:52;;;;;;;5.72;2.83;;;12.70;26.10;;;;;;20857167;28;20052;-41
2023/07/25 02:07:53;;;;;;;5.78;2.88;;;12.70;23.50;;;;;;20864783;28;20029;-41
2023/07/25 02:17:54;;;;;;;6.22;2.80;;;12.60;24.00;;;;;;20872222;28;20479;-41
2023/07/25 02:27:55;;;;;;;6.18;2.60;;;12.50;24.00;;;;;;20873438;28;20037;-41
2023/07/25 02:37:56;;;;;;;8.10;2.53;;;12.50;23.30;;;;;;20879590;28;21387;-41
2023/07/25 02:47:57;;;;;;;6.72;2.40;;;12.40;28.90;;;;;;20886580;28;20033;-41
2023/07/25 02:57:59;;;;;;;5.95;2.63;;;12.40;35.10;;;;;;20844560;28;20925;-41
2023/07/25 03:08:00;;;;;;;7.28;3.22;;;12.50;43.90;;;;;;20876540;28;20048;-41
2023/07/25 03:18:01;;;;;;;6.22;2.58;;;12.40;49.70;;;;;;20872472;28;20040;-41
2023/07/25 03:28:02;;;;;;;4.60;2.25;;;12.40;50.00;;;;;;20835753;28;20041;-41
2023/07/25 03:38:03;;;;;;;8.55;2.97;;;12.50;63.40;;;;;;20887690;28;20045;-42
2023/07/25 03:48:04;;;;;;;7.25;2.40;;;12.60;82.50;;;;;;20894479;28;20052;-41
2023/07/25 03:58:05;;;;;;;6.65;2.90;;;12.70;86.70;;;;;;20891621;28;20041;-42
2023/07/25 04:08:06;;;;;;;9.05;2.50;;;12.80;87.20;;;;;;20826422;28;20056;-41
2023/07/25 04:18:07;;;;;;;6.65;2.92;;;12.80;86.40;;;;;;20845384;28;20480;-42
2023/07/25 04:28:08;;;;;;;7.00;3.30;;;12.90;84.60;;;;;;20825058;28;20045;-42
2023/07/25 04:38:09;;;;;;;11.20;3.28;;;13.10;93.90;;;;;;20844122;28;20048;-42
2023/07/25 04:48:10;;;;;;;7.63;2.25;;;13.30;99.90;;;;;;20849303;28;20531;-41
2023/07/25 04:58:11;;;;;;;5.80;2.05;;;13.50;99.90;;;;;;20882005;28;20046;-42
2023/07/25 05:08:12;;;;;;;8.65;2.72;;;13.50;99.90;;;;;;20877282;28;20052;-41
2023/07/25 05:18:15;;;;;;;12.00;3.30;;;13.60;99.90;;;;;;20875604;28;20393;-41
2023/07/25 05:28:19;;;;;;;6.97;2.50;;;13.80;99.90;;;;;;20884082;28;20051;-42
2023/07/25 05:38:20;;;;;;;4.15;1.75;;;14.00;98.80;;;;;;20871241;28;20171;-42
2023/07/25 05:48:21;;;;;;;6.80;2.42;;;14.10;94.30;;;;;;20885252;28;20051;-42
2023/07/25 05:58:22;;;;;;;6.28;1.60;;;14.30;85.80;;;;;;20871996;28;20439;-42
2023/07/25 06:08:23;;;;;;;7.68;2.53;;;14.40;79.90;;;;;;20874555;28;20048;-42
2023/07/25 06:18:24;;;;;;;4.47;1.77;;;14.60;65.10;;;;;;20871488;28;20033;-41
2023/07/25 06:28:25;;;;;;;10.30;4.85;;;14.70;52.80;;;;;;20822201;28;20717;-43
2023/07/25 06:38:26;;;;;;;9.57;3.30;;;14.80;34.10;;;;;;20875563;28;20036;-42
2023/07/25 06:48:27;;;;;;;7.70;1.58;;;15.00;27.90;;;;;;20858316;28;20047;-43
2023/07/25 06:58:28;;;;;;;3.58;1.05;;;15.50;1.00;;;;;;20872364;28;20059;-42
2023/07/25 07:08:29;;;;;;;4.85;1.02;;;16.00;1.00;;;;;;20871861;28;20044;-42
2023/07/25 07:18:30;;;;;;;5.13;0.95;;;16.40;1.00;;;;;;20897680;28;20041;-42
2023/07/25 07:28:31;;;;;;;2.90;0.90;;;16.60;1.00;;;;;;20866888;28;20040;-42
2023/07/25 07:38:32;;;;;;;2.65;0.50;;;16.60;1.00;;;;;;20904031;28;20757;-43
2023/07/25 07:48:33;;;;;;;3.63;0.50;;;16.60;1.00;;;;;;20890506;28;20047;-43
2023/07/25 07:58:35;;;;;;;2.20;0.40;;;16.70;1.00;;;;;;20898589;28;20206;-43
2023/07/25 08:08:36;;;;;;;4.00;0.40;;;16.70;1.00;;;;;;20889183;28;20412;-43
2023/07/25 08:18:37;;;;;;;2.63;0.60;;;16.80;1.00;;;;;;20893273;28;20040;-43
2023/07/25 08:28:38;;;;;;;2.47;0.65;;;16.90;1.00;;;;;;20868271;28;20428;-43
2023/07/25 08:38:41;;;;;;;2.78;0.60;;;17.40;1.00;;;;;;20885576;28;20052;-43
2023/07/25 08:48:42;;;;;;;3.33;0.98;;;17.90;1.00;;;;;;20872958;28;20048;-43
2023/07/25 08:58:44;;;;;;;1.63;0.40;;;17.80;1.00;;;;;;20882328;28;20044;-42
2023/07/25 09:08:45;;;;;;;0.55;0.20;;;18.00;1.00;;;;;;20881348;28;20045;-42
2023/07/25 09:18:46;;;;;;;1.48;0.30;;;17.70;1.00;;;;;;20890931;28;20032;-43
2023/07/25 09:28:49;;;;;;;1.42;0.40;;;17.90;1.00;;;;;;20878199;28;20055;-43
2023/07/25 09:38:54;;;;;;;3.88;0.75;;;18.60;1.00;;;;;;20880963;28;20032;-43
2023/07/25 09:48:55;;;;;;;1.80;0.50;;;18.50;1.00;;;;;;20873212;28;20039;-43
2023/07/25 09:58:56;;;;;;;1.65;0.47;;;18.50;1.00;;;;;;20881677;28;20036;-43
2023/07/25 10:08:57;;;;;;;3.58;0.40;;;19.40;1.00;;;;;;20879630;28;20117;-44
2023/07/25 10:18:58;;;;;;;2.85;0.40;;;19.60;1.00;;;;;;20884958;28;20447;-44
2023/07/25 10:29:01;;;;;;;2.35;0.40;;;20.60;1.00;;;;;;20878018;28;20060;-44
2023/07/25 10:39:09;;;;;;;1.33;0.40;;;20.00;1.00;;;;;;20878479;28;20044;-44
2023/07/25 10:49:15;;;;;;;3.85;0.68;;;19.10;1.00;;;;;;20869085;28;20045;-44
2023/07/25 10:59:16;;;;;;;1.80;0.35;;;19.30;1.00;;;;;;20880850;28;20056;-44
2023/07/25 11:09:18;;;;;;;2.58;0.40;;;19.40;1.00;;;;;;20881687;28;20044;-44
2023/07/25 11:19:25;;;;;;;4.20;0.40;;;19.40;1.00;;;;;;20871895;28;20044;-44
2023/07/25 11:29:26;;;;;;;2.40;0.47;;;19.60;1.00;;;;;;20878986;28;20041;-44
2023/07/25 11:39:27;;;;;;;1.85;0.40;;;19.60;1.00;;;;;;20867153;28;21913;-42
2023/07/25 11:49:28;;;;;;;2.75;0.43;;;19.90;1.00;;;;;;20869264;28;20044;-42
2023/07/25 11:59:29;;;;;;;2.42;0.60;;;20.10;1.00;;;;;;20858090;28;20063;-42
2023/07/25 12:09:31;;;;;;;3.45;0.85;;;20.30;1.00;;;;;;20881816;28;20060;-41
2023/07/25 12:19:32;;;;;;;1.23;0.40;;;20.00;1.00;;;;;;20868523;28;20484;-42
2023/07/25 12:29:33;;;;;;;1.67;0.50;;;20.40;1.00;;;;;;20881476;28;20036;-42
2023/07/25 12:39:34;;;;;;;1.50;0.40;;;20.70;1.00;;;;;;20872377;28;20524;-42
2023/07/25 12:49:35;;;;;;;3.28;0.30;;;20.30;1.00;;;;;;20883189;28;20679;-41
2023/07/25 12:59:36;;;;;;;2.95;1.25;;;19.90;1.00;;;;;;20863739;28;20037;-43
2023/07/25 13:09:37;;;;;;;4.75;2.70;;;19.90;1.00;;;;;;20893633;28;20041;-43
2023/07/25 13:19:38;;;;;;;2.25;0.50;;;19.40;1.00;;;;;;20879817;28;20028;-43
2023/07/25 13:29:39;;;;;;;1.17;0.38;;;19.00;1.00;;;;;;20897338;28;20052;-43
2023/07/25 13:39:40;;;;;;;1.52;0.52;;;19.90;1.00;;;;;;20882224;28;20056;-43
2023/07/25 13:49:41;;;;;;;1.90;0.45;;;20.60;1.00;;;;;;20895351;28;20417;-43
2023/07/25 13:59:42;;;;;;;1.50;0.38;;;20.80;1.00;;;;;;20841163;28;20052;-42
2023/07/25 14:09:43;;;;;;;3.15;0.50;;;21.00;1.00;;;;;;20866571;28;20036;-42
2023/07/25 14:19:44;;;;;;;1.98;0.55;;;20.60;1.00;;;;;;20883889;28;20044;-42
2023/07/25 14:29:45;;;;;;;0.98;0.40;;;20.90;1.00;;;;;;20900609;28;20045;-42
2023/07/25 14:39:46;;;;;;;1.45;0.50;;;21.10;1.00;;;;;;20905360;28;20492;-42
2023/07/25 14:49:48;;;;;;;2.38;0.60;;;20.60;1.00;;;;;;20901975;28;20041;-42
2023/07/25 14:59:49;;;;;;;2.83;0.60;;;20.40;1.00;;;;;;20890346;28;20041;-42
2023/07/25 15:09:50;;;;;;;2.67;0.60;;;19.80;1.00;;;;;;20859355;28;20040;-42
2023/07/25 15:20:00;;;;;;;1.50;0.50;;;20.20;1.00;;;;;;20895973;28;20041;-42
2023/07/25 15:30:01;;;;;;;3.17;0.60;;;20.50;1.00;;;;;;20881549;28;20044;-42
2023/07/25 15:40:03;;;;;;;2.13;0.70;;;19.90;1.00;;;;;;20885550;28;20353;-41
2023/07/25 15:50:04;;;;;;;1.60;0.75;;;19.70;1.00;;;;;;20873827;28;20063;-42
2023/07/25 16:00:06;;;;;;;3.38;0.63;;;19.70;1.00;;;;;;20863950;28;20033;-44
2023/07/25 16:10:07;;;;;;;2.20;0.65;;;19.80;1.00;;;;;;20876950;28;20044;-44
2023/07/25 16:20:09;;;;;;;1.95;1.15;;;19.40;1.00;;;;;;20873530;28;20052;-42
2023/07/25 16:30:10;;;;;;;2.85;0.70;;;19.50;1.00;;;;;;20866506;28;20488;-42
2023/07/25 16:40:11;;;;;;;3.13;0.68;;;19.40;1.00;;;;;;20864228;28;20539;-43
2023/07/25 16:50:12;;;;;;;2.35;0.77;;;19.40;1.00;;;;;;20875863;28;20291;-43
2023/07/25 17:00:13;;;;;;;1.90;0.95;;;19.00;1.00;;;;;;20861789;28;20477;-42
2023/07/25 17:10:14;;;;;;;3.38;1.33;;;19.10;1.00;;;;;;20865146;28;20043;-42
2023/07/25 17:20:16;;;;;;;3.00;0.95;;;18.90;1.00;;;;;;20854993;28;20055;-42
2023/07/25 17:30:17;;;;;;;2.08;0.95;;;18.90;1.00;;;;;;20872632;28;20499;-42
2023/07/25 17:40:18;;;;;;;2.67;1.08;;;18.50;1.00;;;;;;20868842;28;20048;-42
2023/07/25 17:50:19;;;;;;;2.22;1.00;;;18.40;1.00;;;;;;20878102;28;20048;-43
2023/07/25 18:00:20;;;;;;;2.67;1.23;;;18.20;1.00;;;;;;20885931;28;20033;-42
2023/07/25 18:10:21;;;;;;;2.70;1.10;;;18.10;1.00;;;;;;20878347;28;20124;-43
2023/07/25 18:20:23;;;;;;;2.97;1.10;;;17.80;1.00;;;;;;20883263;28;20051;-42
2023/07/25 18:30:24;;;;;;;2.60;1.00;;;17.50;1.00;;;;;;20885650;28;20059;-42
2023/07/25 18:40:26;;;;;;;2.45;1.27;;;17.40;1.00;;;;;;20881215;28;20037;-43
2023/07/25 18:50:27;;;;;;;2.97;0.82;;;17.00;1.00;;;;;;20880291;28;20497;-42
2023/07/25 19:00:28;;;;;;;2.58;0.90;;;16.70;1.00;;;;;;20885651;28;20044;-42
2023/07/25 19:10:29;;;;;;;4.22;1.83;;;16.50;1.00;;;;;;20892409;28;20051;-42
2023/07/25 19:20:30;;;;;;;3.17;1.10;;;16.40;1.00;;;;;;20867735;28;20566;-43
2023/07/25 19:30:31;;;;;;;2.63;1.00;;;16.40;1.00;;;;;;20882637;28;20052;-42
2023/07/25 19:40:32;;;;;;;3.47;1.10;;;16.40;1.00;;;;;;20876217;28;20048;-42
2023/07/25 19:50:34;;;;;;;3.42;1.17;;;16.30;1.00;;;;;;20870861;28;20048;-42
2023/07/25 20:00:36;;;;;;;2.10;0.90;;;16.20;1.00;;;;;;20864735;28;20051;-42
2023/07/25 20:10:37;;;;;;;3.90;1.35;;;16.10;1.00;;;;;;20870832;28;20045;-42
2023/07/25 20:20:38;;;;;;;4.00;1.60;;;16.10;1.00;;;;;;20864443;28;20414;-42
2023/07/25 20:30:39;;;;;;;2.65;1.15;;;16.00;1.00;;;;;;20869282;28;20048;-43
2023/07/25 20:40:40;;;;;;;4.00;1.50;;;16.00;1.00;;;;;;20774679;28;20055;-42
2023/07/25 20:50:41;;;;;;;2.53;1.10;;;15.90;1.00;;;;;;20738471;28;20052;-42
2023/07/25 21:00:42;;;;;;;3.78;1.65;;;15.80;1.00;;;;;;20789016;28;20504;-42
2023/07/25 21:10:43;;;;;;;2.45;1.60;;;15.70;1.00;;;;;;20748877;28;20041;-43
2023/07/25 21:20:44;;;;;;;2.58;1.60;;;15.70;1.00;;;;;;20742570;28;20038;-42
2023/07/25 21:30:46;;;;;;;4.88;1.90;;;15.80;1.00;;;;;;20759584;28;20481;-43
2023/07/25 21:40:47;;;;;;;4.00;1.42;;;15.70;1.00;;;;;;20846758;28;20044;-43
2023/07/25 21:50:48;;;;;;;3.22;1.60;;;15.60;1.00;;;;;;20871756;28;20059;-43
2023/07/25 22:00:49;;;;;;;4.05;1.60;;;15.50;1.00;;;;;;20874093;28;20036;-43
2023/07/25 22:10:52;;;;;;;3.88;1.88;;;15.30;1.00;;;;;;20876038;28;20048;-43
2023/07/25 22:20:54;;;;;;;3.90;1.52;;;15.30;1.00;;;;;;20881334;28;20400;-43
2023/07/25 22:30:55;;;;;;;2.80;1.50;;;15.20;1.00;;;;;;20870460;28;20040;-43
2023/07/25 22:40:56;;;;;;;3.25;1.75;;;15.20;1.00;;;;;;20906046;28;20037;-43
2023/07/25 22:50:57;;;;;;;2.58;1.77;;;15.20;1.00;;;;;;20905533;28;20063;-42
2023/07/25 23:00:58;;;;;;;4.28;1.88;;;15.20;1.00;;;;;;20896531;28;20036;-43
2023/07/25 23:10:59;;;;;;;3.33;2.00;;;15.20;1.00;;;;;;20894013;28;20045;-43
2023/07/25 23:21:00;;;;;;;3.75;2.10;;;15.20;1.00;;;;;;20889903;28;20040;-43
2023/07/25 23:31:01;;;;;;;4.53;2.13;;;15.20;1.00;;;;;;20887916;28;20032;-42
2023/07/25 23:41:03;;;;;;;4.10;2.00;;;15.10;1.00;;;;;;20886976;28;20515;-42
2023/07/25 23:51:04;;;;;;;3.38;2.17;;;15.00;1.00;;;;;;20890970;28;20044;-42
